createdAt,value
2023-01-10T00:02:26.299Z,3.35
2023-01-10T00:04:54.812Z,3.25
2023-01-10T00:07:25.343Z,3.31
2023-01-10T00:09:53.810Z,3.33
2023-01-10T00:12:40.845Z,3.36
2023-01-10T00:15:10.443Z,3.31
2023-01-10T00:20:37.246Z,3.31
2023-01-10T00:23:07.325Z,3.30
2023-01-10T00:25:36.354Z,3.31
2023-01-10T00:28:11.055Z,3.28
2023-01-10T00:30:39.806Z,3.42
2023-01-10T00:33:12.614Z,3.58
2023-01-10T00:35:41.364Z,3.46
2023-01-10T00:38:11.159Z,3.38
2023-01-10T01:02:26.886Z,3.43
2023-01-10T01:04:55.456Z,3.48
2023-01-10T01:07:23.944Z,3.41
2023-01-10T01:10:09.382Z,3.34
2023-01-10T01:12:37.689Z,3.37
2023-01-10T01:15:07.025Z,3.35
2023-01-10T01:17:36.769Z,3.43
2023-01-10T01:20:06.165Z,3.40
2023-01-10T01:22:34.379Z,3.42
2023-01-10T01:25:04.494Z,3.43
2023-01-10T01:27:32.847Z,3.37
2023-01-10T01:30:01.082Z,3.37
2023-01-10T01:32:29.361Z,3.37
2023-01-10T01:34:59.045Z,3.40
2023-01-10T01:37:27.333Z,3.42
2023-01-10T01:39:55.597Z,3.73
2023-01-10T01:42:26.875Z,3.72
2023-01-10T01:45:37.267Z,3.62
2023-01-10T01:48:20.937Z,3.54
2023-01-10T01:50:55.468Z,3.63
2023-01-10T01:53:29.230Z,3.68
2023-01-10T01:56:00.425Z,3.75
2023-01-10T01:58:35.319Z,3.73
2023-01-10T02:01:04.016Z,3.75
2023-01-10T02:03:32.892Z,4.02
2023-01-10T02:06:02.812Z,4.27
2023-01-10T02:08:31.051Z,4.70
2023-01-10T02:11:06.086Z,5.59
2023-01-10T02:13:35.296Z,5.89
2023-01-10T02:16:03.612Z,5.97
2023-01-10T02:18:32.021Z,5.98
2023-01-10T02:21:26.492Z,5.99
2023-01-10T02:24:33.072Z,6.59
2023-01-10T02:27:12.124Z,6.71
2023-01-10T02:30:14.634Z,6.83
2023-01-10T02:33:00.636Z,7.13
2023-01-10T02:35:58.460Z,6.99
2023-01-10T02:38:36.929Z,7.12
2023-01-10T02:41:15.700Z,7.18
2023-01-10T02:43:48.244Z,7.20
2023-01-10T02:46:18.377Z,7.07
2023-01-10T02:48:48.382Z,7.08
2023-01-10T02:51:20.620Z,7.16
2023-01-10T02:53:50.657Z,7.36
2023-01-10T02:56:51.055Z,7.52
2023-01-10T03:00:03.157Z,7.34
2023-01-10T03:02:47.942Z,7.06
2023-01-10T03:05:27.793Z,7.35
2023-01-10T03:08:02.783Z,7.00
2023-01-10T03:10:36.382Z,7.04
2023-01-10T03:13:07.541Z,7.32
2023-01-10T03:15:38.893Z,7.50
2023-01-10T03:18:10.079Z,7.17
2023-01-10T03:20:40.398Z,7.44
2023-01-10T03:23:08.736Z,7.57
2023-01-10T03:25:38.570Z,7.49
2023-01-10T03:28:09.113Z,7.54
2023-01-10T03:30:43.325Z,7.58
2023-01-10T03:33:13.270Z,7.55
2023-01-10T03:35:51.163Z,7.36
2023-01-10T03:38:23.314Z,7.57
2023-01-10T03:40:55.990Z,7.72
2023-01-10T03:43:46.565Z,7.75
2023-01-10T03:46:22.141Z,7.65
2023-01-10T03:48:50.863Z,7.41
2023-01-10T03:51:21.062Z,7.44
2023-01-10T03:53:49.446Z,7.59
2023-01-10T03:56:17.764Z,7.53
2023-01-10T03:58:46.198Z,7.59
2023-01-10T04:01:14.545Z,7.78
2023-01-10T04:03:42.911Z,7.86
2023-01-10T04:06:11.487Z,7.70
2023-01-10T04:08:41.278Z,7.34
2023-01-10T04:11:09.600Z,7.14
2023-01-10T04:13:37.932Z,7.25
2023-01-10T04:16:06.789Z,7.24
2023-01-10T04:18:35.061Z,7.42
2023-01-10T04:21:03.385Z,7.68
2023-01-10T04:23:31.629Z,7.39
2023-01-10T04:26:01.321Z,7.35
2023-01-10T04:28:29.661Z,7.10
2023-01-10T04:30:58.260Z,7.39
2023-01-10T04:33:28.554Z,7.36
2023-01-10T04:35:56.983Z,7.36
2023-01-10T04:38:25.367Z,7.22
2023-01-10T04:40:55.079Z,7.48
2023-01-10T04:43:25.555Z,7.67
2023-01-10T04:45:54.164Z,7.41
2023-01-10T04:48:22.572Z,7.48
2023-01-10T04:50:52.010Z,7.67
2023-01-10T04:53:20.476Z,7.67
2023-01-10T04:55:49.276Z,7.59
2023-01-10T04:58:17.557Z,7.51
2023-01-10T05:00:48.289Z,7.60
2023-01-10T05:03:21.077Z,7.55
2023-01-10T05:05:49.755Z,7.69
2023-01-10T05:08:18.139Z,7.30
2023-01-10T05:10:46.952Z,7.51
2023-01-10T05:13:15.187Z,7.74
2023-01-10T05:15:43.462Z,7.65
2023-01-10T05:18:13.129Z,7.65
2023-01-10T05:20:41.434Z,7.40
2023-01-10T05:25:55.607Z,7.76
2023-01-10T05:28:24.172Z,7.80
2023-01-10T05:30:52.615Z,7.46
2023-01-10T05:33:22.304Z,7.56
2023-01-10T05:35:50.652Z,7.31
2023-01-10T05:38:19.042Z,7.34
2023-01-10T05:40:47.411Z,7.35
2023-01-10T05:43:15.798Z,7.30
2023-01-10T05:45:44.847Z,7.40
2023-01-10T05:48:13.203Z,7.25
2023-01-10T05:50:42.904Z,7.38
2023-01-10T05:53:11.258Z,7.37
2023-01-10T05:55:42.053Z,7.37
2023-01-10T05:58:11.235Z,7.29
2023-01-10T06:00:40.451Z,7.50
2023-01-10T06:03:10.277Z,7.74
2023-01-10T06:05:39.633Z,7.76
2023-01-10T06:08:09.306Z,7.45
2023-01-10T06:10:37.650Z,7.19
2023-01-10T06:13:06.308Z,7.15
2023-01-10T06:15:35.007Z,6.95
2023-01-10T06:18:03.467Z,7.40
2023-01-10T06:20:31.984Z,7.38
2023-01-10T06:23:04.745Z,7.10
2023-01-10T06:25:37.046Z,7.03
2023-01-10T06:28:28.134Z,7.27
2023-01-10T06:30:56.431Z,7.21
2023-01-10T06:33:24.736Z,7.29
2023-01-10T06:35:53.071Z,7.25
2023-01-10T06:38:21.520Z,7.24
2023-01-10T06:40:51.300Z,7.41
2023-01-10T06:43:20.569Z,7.26
2023-01-10T06:45:48.936Z,7.21
2023-01-10T06:48:17.585Z,7.13
2023-01-10T06:50:45.857Z,7.13
2023-01-10T06:53:14.196Z,7.11
2023-01-10T06:55:42.493Z,7.03
2023-01-10T06:58:18.461Z,7.19
2023-01-10T07:00:46.886Z,6.91
2023-01-10T07:03:15.156Z,7.20
2023-01-10T07:05:43.925Z,7.13
2023-01-10T07:08:12.274Z,7.07
2023-01-10T07:10:41.923Z,7.16
2023-01-10T07:13:11.908Z,7.06
2023-01-10T07:15:40.171Z,6.97
2023-01-10T07:18:10.279Z,7.28
2023-01-10T07:20:40.209Z,7.09
2023-01-10T07:23:08.593Z,7.24
2023-01-10T07:25:36.895Z,7.13
2023-01-10T07:28:06.408Z,7.24
2023-01-10T07:30:36.174Z,7.24
2023-01-10T07:33:06.407Z,7.30
2023-01-10T07:35:34.697Z,7.11
2023-01-10T07:38:03.432Z,7.14
2023-01-10T07:40:31.800Z,7.21
2023-01-10T07:43:01.495Z,6.91
2023-01-10T07:45:30.489Z,7.01
2023-01-10T07:48:01.354Z,6.93
2023-01-10T07:50:32.092Z,7.46
2023-01-10T07:53:01.127Z,7.04
2023-01-10T07:55:30.043Z,7.06
2023-01-10T07:57:58.786Z,7.11
2023-01-10T08:00:27.542Z,7.09
2023-01-10T08:02:56.568Z,6.91
2023-01-10T08:05:26.597Z,6.96
2023-01-10T08:07:56.355Z,7.18
2023-01-10T08:10:26.112Z,7.41
2023-01-10T08:12:54.441Z,7.32
2023-01-10T08:15:23.143Z,7.19
2023-01-10T08:17:51.491Z,7.26
2023-01-10T08:20:20.160Z,7.09
2023-01-10T08:22:49.875Z,7.21
2023-01-10T08:25:18.189Z,7.29
2023-01-10T08:27:46.571Z,7.23
2023-01-10T08:30:16.090Z,7.35
2023-01-10T08:32:44.686Z,7.24
2023-01-10T08:35:13.094Z,7.23
2023-01-10T08:37:41.589Z,7.67
2023-01-10T08:40:12.607Z,7.62
2023-01-10T08:42:41.007Z,7.51
2023-01-10T08:45:10.332Z,7.50
2023-01-10T08:47:38.789Z,7.66
2023-01-10T08:50:08.091Z,7.68
2023-01-10T08:52:36.748Z,7.93
2023-01-10T08:55:05.313Z,8.13
2023-01-10T08:57:34.972Z,7.70
2023-01-10T09:00:04.091Z,8.16
2023-01-10T09:02:32.501Z,7.79
2023-01-10T09:05:00.855Z,7.78
2023-01-10T09:07:29.411Z,7.83
2023-01-10T09:09:57.792Z,8.15
2023-01-10T09:12:43.501Z,8.02
2023-01-10T09:15:13.527Z,7.82
2023-01-10T09:17:42.188Z,8.23
2023-01-10T09:20:11.717Z,8.31
2023-01-10T09:22:40.639Z,8.34
2023-01-10T09:25:09.625Z,8.50
2023-01-10T09:27:38.065Z,8.64
2023-01-10T09:30:07.103Z,8.49
2023-01-10T09:32:36.851Z,8.75
2023-01-10T09:35:05.776Z,8.83
2023-01-10T09:37:34.813Z,9.38
2023-01-10T09:40:03.115Z,9.65
2023-01-10T09:42:54.283Z,9.41
2023-01-10T09:45:28.955Z,9.87
2023-01-10T09:48:02.631Z,9.52
2023-01-10T09:50:34.054Z,9.19
2023-01-10T09:53:05.511Z,8.93
2023-01-10T09:55:35.637Z,8.61
2023-01-10T09:58:08.414Z,8.69
2023-01-10T10:00:40.838Z,9.42
2023-01-10T10:03:20.806Z,9.02
2023-01-10T10:05:50.539Z,9.06
2023-01-10T10:08:21.354Z,8.85
2023-01-10T10:10:57.142Z,9.15
2023-01-10T10:13:32.165Z,8.84
2023-01-10T10:16:06.660Z,9.26
2023-01-10T10:18:43.517Z,8.68
2023-01-10T10:21:18.794Z,9.44
2023-01-10T10:24:09.021Z,8.48
2023-01-10T10:26:40.032Z,8.76
2023-01-10T10:29:32.390Z,8.55
2023-01-10T10:32:16.222Z,9.14
2023-01-10T10:34:49.267Z,8.99
2023-01-10T10:37:21.422Z,8.94
2023-01-10T10:39:52.678Z,9.19
2023-01-10T10:42:21.306Z,9.27
2023-01-10T10:44:55.227Z,9.11
2023-01-10T10:47:25.301Z,8.96
2023-01-10T10:50:01.033Z,9.74
2023-01-10T10:52:34.497Z,9.73
2023-01-10T10:55:05.330Z,9.77
2023-01-10T10:57:35.928Z,10.03
2023-01-10T11:00:06.176Z,9.37
2023-01-10T11:02:40.688Z,9.60
2023-01-10T11:05:19.148Z,9.45
2023-01-10T11:07:47.658Z,10.15
2023-01-10T11:10:35.161Z,9.94
2023-01-10T11:13:05.953Z,9.53
2023-01-10T11:15:40.456Z,9.63
2023-01-10T11:18:12.877Z,9.28
2023-01-10T11:20:50.666Z,9.12
2023-01-10T11:23:30.357Z,9.76
2023-01-10T11:25:58.766Z,9.58
2023-01-10T11:28:31.110Z,9.83
2023-01-10T11:31:00.116Z,9.81
2023-01-10T11:33:30.755Z,10.09
2023-01-10T11:36:02.661Z,9.21
2023-01-10T11:38:31.229Z,9.36
2023-01-10T11:41:01.970Z,10.01
2023-01-10T11:43:33.950Z,10.25
2023-01-10T11:46:04.053Z,9.44
2023-01-10T11:49:04.906Z,9.06
2023-01-10T11:51:38.230Z,9.27
2023-01-10T11:54:08.369Z,9.64
2023-01-10T11:56:39.988Z,10.32
2023-01-10T11:59:12.788Z,10.19
2023-01-10T12:01:44.444Z,9.89
2023-01-10T12:04:16.159Z,9.83
2023-01-10T12:06:48.669Z,9.72
2023-01-10T12:09:39.853Z,9.64
2023-01-10T12:12:17.754Z,9.41
2023-01-10T12:14:46.542Z,9.52
2023-01-10T12:17:26.587Z,9.59
2023-01-10T12:19:56.567Z,9.26
2023-01-10T12:22:31.192Z,9.14
2023-01-10T12:25:00.277Z,8.69
2023-01-10T12:27:29.647Z,8.77
2023-01-10T12:30:04.883Z,8.71
2023-01-10T12:32:38.109Z,8.49
2023-01-10T12:35:11.565Z,8.45
2023-01-10T12:37:48.017Z,8.39
2023-01-10T12:40:19.238Z,8.79
2023-01-10T12:43:10.467Z,8.46
2023-01-10T12:45:43.400Z,8.59
2023-01-10T12:48:16.151Z,8.07
2023-01-10T12:50:46.808Z,8.19
2023-01-10T12:53:23.602Z,8.31
2023-01-10T12:55:54.927Z,8.10
2023-01-10T12:58:27.619Z,8.14
2023-01-10T13:00:59.529Z,8.14
2023-01-10T13:03:33.342Z,8.11
2023-01-10T13:06:02.418Z,8.26
2023-01-10T13:08:35.393Z,8.07
2023-01-10T13:11:04.010Z,7.88
2023-01-10T13:13:35.399Z,7.78
2023-01-10T13:16:17.514Z,7.93
2023-01-10T13:19:01.975Z,7.87
2023-01-10T13:21:30.955Z,7.66
2023-01-10T13:24:02.804Z,7.88
2023-01-10T13:26:51.125Z,7.99
2023-01-10T13:29:21.276Z,8.02
2023-01-10T13:31:57.199Z,7.83
2023-01-10T13:34:27.817Z,7.76
2023-01-10T13:36:58.082Z,8.04
2023-01-10T13:39:30.689Z,8.12
2023-01-10T13:42:31.885Z,8.22
2023-01-10T13:45:18.753Z,8.16
2023-01-10T13:48:17.178Z,8.02
2023-01-10T13:51:07.915Z,7.96
2023-01-10T13:53:45.198Z,8.13
2023-01-10T13:56:38.316Z,7.79
2023-01-10T13:59:30.225Z,7.93
2023-01-10T14:02:18.419Z,7.81
2023-01-10T14:04:49.449Z,7.95
2023-01-10T14:07:24.620Z,7.91
2023-01-10T14:09:53.283Z,8.06
2023-01-10T14:12:34.259Z,8.05
2023-01-10T14:15:06.545Z,7.95
2023-01-10T14:17:35.781Z,7.97
2023-01-10T14:20:23.318Z,7.92
2023-01-10T14:23:09.597Z,7.79
2023-01-10T14:25:38.932Z,7.71
2023-01-10T14:28:19.630Z,7.69
2023-01-10T14:31:00.676Z,7.68
2023-01-10T14:33:29.477Z,7.44
2023-01-10T14:36:00.429Z,7.64
2023-01-10T14:38:30.925Z,7.44
2023-01-10T14:41:01.925Z,7.42
2023-01-10T14:43:38.899Z,7.35
2023-01-10T14:46:11.826Z,7.25
2023-01-10T14:48:43.422Z,7.35
2023-01-10T14:51:21.102Z,7.36
2023-01-10T14:53:54.945Z,7.36
2023-01-10T14:56:25.655Z,7.35
2023-01-10T14:58:55.387Z,7.27
2023-01-10T15:01:26.459Z,7.29
2023-01-10T15:03:57.089Z,7.21
2023-01-10T15:06:26.131Z,6.99
2023-01-10T15:09:03.721Z,6.99
2023-01-10T15:11:33.322Z,7.12
2023-01-10T15:14:08.163Z,6.89
2023-01-10T15:16:39.129Z,6.94
2023-01-10T15:19:07.540Z,6.73
2023-01-10T15:21:43.380Z,6.65
2023-01-10T15:24:33.208Z,6.72
2023-01-10T15:27:03.680Z,6.82
2023-01-10T15:29:33.930Z,6.92
2023-01-10T15:32:09.429Z,6.77
2023-01-10T15:34:38.738Z,6.82
2023-01-10T15:37:08.412Z,6.92
2023-01-10T15:39:40.263Z,6.62
2023-01-10T15:42:10.989Z,6.65
2023-01-10T15:44:45.089Z,6.56
2023-01-10T15:47:38.092Z,6.71
2023-01-10T15:50:20.995Z,6.43
2023-01-10T15:52:50.637Z,6.47
2023-01-10T15:55:37.592Z,6.68
2023-01-10T15:58:06.912Z,6.68
2023-01-10T16:00:36.698Z,6.53
2023-01-10T16:03:15.939Z,6.51
2023-01-10T16:05:51.572Z,6.84
2023-01-10T16:08:23.600Z,6.51
2023-01-10T16:10:54.608Z,6.54
2023-01-10T16:13:28.352Z,6.61
2023-01-10T16:15:58.839Z,6.61
2023-01-10T16:18:27.859Z,6.86
2023-01-10T16:20:58.491Z,6.42
2023-01-10T16:23:30.879Z,6.56
2023-01-10T16:26:00.787Z,6.64
2023-01-10T16:28:33.269Z,6.40
2023-01-10T16:31:04.949Z,6.48
2023-01-10T16:33:34.643Z,6.42
2023-01-10T16:36:13.352Z,6.32
2023-01-10T16:38:43.861Z,6.17
2023-01-10T16:41:32.050Z,6.22
2023-01-10T16:44:01.449Z,6.34
2023-01-10T16:46:32.411Z,6.32
2023-01-10T16:49:01.110Z,6.33
2023-01-10T16:51:32.468Z,6.28
2023-01-10T16:54:00.975Z,6.39
2023-01-10T16:56:30.443Z,6.38
2023-01-10T16:58:59.234Z,6.11
2023-01-10T17:01:31.045Z,6.12
2023-01-10T17:03:59.684Z,6.33
2023-01-10T17:06:28.827Z,6.08
2023-01-10T17:08:57.148Z,5.97
2023-01-10T17:11:29.312Z,6.10
2023-01-10T17:13:57.970Z,5.97
2023-01-10T17:16:26.444Z,5.97
2023-01-10T17:18:56.140Z,6.32
2023-01-10T17:21:25.154Z,5.97
2023-01-10T17:23:53.493Z,5.86
2023-01-10T17:26:23.074Z,5.89
2023-01-10T17:28:52.086Z,5.63
2023-01-10T17:31:20.583Z,5.51
2023-01-10T17:33:49.685Z,5.58
2023-01-10T17:36:19.870Z,5.95
2023-01-10T17:38:49.826Z,6.01
2023-01-10T17:41:20.418Z,5.74
2023-01-10T17:43:49.118Z,5.92
2023-01-10T17:46:18.100Z,5.98
2023-01-10T17:48:46.975Z,5.91
2023-01-10T17:51:25.212Z,5.69
2023-01-10T17:53:55.685Z,5.54
2023-01-10T17:56:25.902Z,5.71
2023-01-10T17:58:54.368Z,5.86
2023-01-10T18:01:25.942Z,5.73
2023-01-10T18:03:54.817Z,5.90
2023-01-10T18:06:25.692Z,6.00
2023-01-10T18:08:57.219Z,5.97
2023-01-10T18:11:26.148Z,5.75
2023-01-10T18:13:55.721Z,5.84
2023-01-10T18:16:28.597Z,5.71
2023-01-10T18:18:58.035Z,5.87
2023-01-10T18:21:29.013Z,5.45
2023-01-10T18:24:01.949Z,5.45
2023-01-10T18:26:34.796Z,5.55
2023-01-10T18:29:03.316Z,5.72
2023-01-10T18:31:35.521Z,5.70
2023-01-10T18:34:04.481Z,5.74
2023-01-10T18:36:38.013Z,5.64
2023-01-10T18:39:15.971Z,5.59
2023-01-10T18:41:47.105Z,5.64
2023-01-10T18:44:17.583Z,5.57
2023-01-10T18:46:49.240Z,5.66
2023-01-10T18:49:18.474Z,5.58
2023-01-10T18:51:50.272Z,5.70
2023-01-10T18:54:21.648Z,5.60
2023-01-10T18:56:56.755Z,5.75
2023-01-10T18:59:29.264Z,5.27
2023-01-10T19:02:01.576Z,5.51
2023-01-10T19:04:36.468Z,5.57
2023-01-10T19:07:10.331Z,5.60
2023-01-10T19:09:40.486Z,5.65
2023-01-10T19:12:09.802Z,5.61
2023-01-10T19:14:39.223Z,5.66
2023-01-10T19:17:10.191Z,5.33
2023-01-10T19:19:40.208Z,5.47
2023-01-10T19:22:10.378Z,5.48
2023-01-10T19:24:41.182Z,5.42
2023-01-10T19:27:11.797Z,5.40
2023-01-10T19:29:42.868Z,5.54
2023-01-10T19:32:14.483Z,5.74
2023-01-10T19:34:46.518Z,5.49
2023-01-10T19:37:16.476Z,5.19
2023-01-10T19:39:46.800Z,5.34
2023-01-10T19:42:19.252Z,5.38
2023-01-10T19:44:49.346Z,5.28
2023-01-10T19:47:19.346Z,5.44
2023-01-10T19:49:49.449Z,5.42
2023-01-10T19:52:21.130Z,5.36
2023-01-10T19:54:52.589Z,5.08
2023-01-10T19:57:22.169Z,5.07
2023-01-10T19:59:55.451Z,4.77
2023-01-10T20:02:25.863Z,4.93
2023-01-10T20:04:56.754Z,4.55
2023-01-10T20:07:28.408Z,4.68
2023-01-10T20:09:57.712Z,4.73
2023-01-10T20:12:28.158Z,4.57
2023-01-10T20:14:56.741Z,4.47
2023-01-10T20:17:25.326Z,4.60
2023-01-10T20:19:55.890Z,4.07
2023-01-10T20:22:26.245Z,3.98
2023-01-10T20:24:58.219Z,4.02
2023-01-10T20:27:27.897Z,3.47
2023-01-10T20:29:57.567Z,3.27
2023-01-10T20:32:26.704Z,3.50
2023-01-10T20:34:56.207Z,3.47
2023-01-10T20:37:26.359Z,3.61
2023-01-10T20:39:55.569Z,3.75
2023-01-10T20:42:24.019Z,3.63
2023-01-10T20:44:52.744Z,3.60
2023-01-10T20:47:21.683Z,3.46
2023-01-10T20:49:52.726Z,3.67
2023-01-10T20:52:21.301Z,3.60
2023-01-10T20:54:51.785Z,3.58
2023-01-10T20:57:20.441Z,3.44
2023-01-10T20:59:49.633Z,3.22
2023-01-10T21:02:18.616Z,2.89
2023-01-10T21:04:49.101Z,2.43
2023-01-10T21:07:18.886Z,2.13
2023-01-10T21:09:47.301Z,1.95
2023-01-10T21:12:23.221Z,1.73
2023-01-10T21:14:53.941Z,1.57
2023-01-10T21:17:23.648Z,1.40
2023-01-10T21:19:55.350Z,1.37
2023-01-10T21:22:24.780Z,1.27
2023-01-10T21:24:53.299Z,1.17
2023-01-10T21:27:24.532Z,1.24
2023-01-10T21:29:53.674Z,1.46
2023-01-10T21:32:22.107Z,1.51
2023-01-10T21:34:54.433Z,1.26
2023-01-10T21:37:34.011Z,1.30
2023-01-10T21:40:03.875Z,1.31
2023-01-10T21:42:44.855Z,1.04
2023-01-10T21:45:21.544Z,0.84
2023-01-10T21:47:51.570Z,0.66
2023-01-10T21:50:22.623Z,0.51
2023-01-10T21:52:52.483Z,0.39
2023-01-10T21:55:20.919Z,0.35
2023-01-10T21:57:51.499Z,0.42
2023-01-10T22:00:20.943Z,0.38
2023-01-10T22:02:51.406Z,0.26
2023-01-10T22:05:23.514Z,0.07
2023-01-10T22:07:54.892Z,-0.10
2023-01-10T22:10:23.551Z,-0.01
2023-01-10T22:12:53.718Z,0.17
2023-01-10T22:15:22.159Z,0.21
2023-01-10T22:17:50.476Z,0.14
2023-01-10T22:20:19.137Z,0.17
2023-01-10T22:22:47.579Z,0.06
2023-01-10T22:25:18.513Z,0.24
2023-01-10T22:27:48.519Z,0.19
2023-01-10T22:30:19.237Z,-0.01
2023-01-10T22:32:47.839Z,0.12
2023-01-10T22:35:20.158Z,0.13
2023-01-10T22:37:48.620Z,0.15
2023-01-10T22:40:17.957Z,-0.07
2023-01-10T22:42:46.332Z,0.09
2023-01-10T22:45:15.188Z,0.06
2023-01-10T22:47:44.875Z,-0.29
2023-01-10T22:50:13.318Z,-0.52
2023-01-10T22:52:42.138Z,-0.60
2023-01-10T22:55:11.334Z,-0.67
2023-01-10T22:57:47.084Z,-0.68
2023-01-10T23:40:12.381Z,-0.61
2023-01-10T23:42:40.868Z,-0.57
2023-01-10T23:45:10.617Z,-0.64
2023-01-10T23:47:40.841Z,-0.86
2023-01-10T23:50:10.601Z,-1.04
2023-01-10T23:52:39.079Z,-1.19
2023-01-10T23:55:08.270Z,-1.28
2023-01-10T23:57:39.149Z,-1.26
